sensor_id;sensor_type;location;lat;lon;timestamp;P1;durP1;ratioP1;P2;durP2;ratioP2
20962;SDS011;10640;50.140;8.138;2022-07-05T00:01:12;4.83;;;1.80;;
20962;SDS011;10640;50.140;8.138;2022-07-05T00:03:40;1.90;;;1.73;;
20962;SDS011;10640;50.140;8.138;2022-07-05T00:06:07;3.83;;;1.73;;
20962;SDS011;10640;50.140;8.138;2022-07-05T00:08:35;1.50;;;1.40;;
20962;SDS011;10640;50.140;8.138;2022-07-05T00:11:03;4.87;;;1.80;;
20962;SDS011;10640;50.140;8.138;2022-07-05T00:13:30;2.33;;;1.80;;
20962;SDS011;10640;50.140;8.138;2022-07-05T00:15:58;5.17;;;1.90;;
20962;SDS011;10640;50.140;8.138;2022-07-05T00:18:25;2.37;;;2.17;;
20962;SDS011;10640;50.140;8.138;2022-07-05T00:20:52;2.33;;;1.67;;
20962;SDS011;10640;50.140;8.138;2022-07-05T00:23:19;1.90;;;1.70;;
20962;SDS011;10640;50.140;8.138;2022-07-05T00:25:46;3.87;;;1.93;;
20962;SDS011;10640;50.140;8.138;2022-07-05T00:28:15;3.07;;;1.70;;
20962;SDS011;10640;50.140;8.138;2022-07-05T00:30:42;3.67;;;1.97;;
20962;SDS011;10640;50.140;8.138;2022-07-05T00:33:09;2.00;;;1.90;;
20962;SDS011;10640;50.140;8.138;2022-07-05T00:35:36;3.40;;;1.87;;
20962;SDS011;10640;50.140;8.138;2022-07-05T00:38:03;2.00;;;1.90;;
20962;SDS011;10640;50.140;8.138;2022-07-05T00:40:30;1.90;;;1.80;;
20962;SDS011;10640;50.140;8.138;2022-07-05T00:42:57;2.80;;;1.93;;
20962;SDS011;10640;50.140;8.138;2022-07-05T00:45:25;2.30;;;2.10;;
20962;SDS011;10640;50.140;8.138;2022-07-05T00:47:52;4.03;;;2.00;;
20962;SDS011;10640;50.140;8.138;2022-07-05T00:50:19;2.03;;;1.93;;
20962;SDS011;10640;50.140;8.138;2022-07-05T00:52:46;2.30;;;1.90;;
20962;SDS011;10640;50.140;8.138;2022-07-05T00:55:14;2.17;;;1.90;;
20962;SDS011;10640;50.140;8.138;2022-07-05T00:57:42;3.57;;;2.03;;
20962;SDS011;10640;50.140;8.138;2022-07-05T01:00:10;3.37;;;2.10;;
20962;SDS011;10640;50.140;8.138;2022-07-05T01:02:40;4.17;;;1.70;;
20962;SDS011;10640;50.140;8.138;2022-07-05T01:05:07;2.17;;;1.80;;
20962;SDS011;10640;50.140;8.138;2022-07-05T01:07:34;5.67;;;2.10;;
20962;SDS011;10640;50.140;8.138;2022-07-05T01:10:01;1.83;;;1.73;;
20962;SDS011;10640;50.140;8.138;2022-07-05T01:12:29;1.97;;;1.83;;
20962;SDS011;10640;50.140;8.138;2022-07-05T01:14:57;5.50;;;2.03;;
20962;SDS011;10640;50.140;8.138;2022-07-05T01:17:25;4.50;;;2.20;;
20962;SDS011;10640;50.140;8.138;2022-07-05T01:19:53;2.07;;;1.90;;
20962;SDS011;10640;50.140;8.138;2022-07-05T01:22:21;3.10;;;2.20;;
20962;SDS011;10640;50.140;8.138;2022-07-05T01:24:54;2.33;;;1.90;;
20962;SDS011;10640;50.140;8.138;2022-07-05T01:27:21;1.97;;;1.87;;
20962;SDS011;10640;50.140;8.138;2022-07-05T01:29:50;2.67;;;2.10;;
20962;SDS011;10640;50.140;8.138;2022-07-05T01:32:19;2.33;;;2.03;;
20962;SDS011;10640;50.140;8.138;2022-07-05T01:34:46;3.27;;;2.07;;
20962;SDS011;10640;50.140;8.138;2022-07-05T01:37:14;2.00;;;1.80;;
20962;SDS011;10640;50.140;8.138;2022-07-05T01:39:41;4.03;;;2.40;;
20962;SDS011;10640;50.140;8.138;2022-07-05T01:42:10;3.03;;;2.10;;
20962;SDS011;10640;50.140;8.138;2022-07-05T01:44:37;2.17;;;1.93;;
20962;SDS011;10640;50.140;8.138;2022-07-05T01:47:07;1.80;;;1.70;;
20962;SDS011;10640;50.140;8.138;2022-07-05T01:49:36;4.70;;;2.00;;
20962;SDS011;10640;50.140;8.138;2022-07-05T01:52:08;2.83;;;2.00;;
20962;SDS011;10640;50.140;8.138;2022-07-05T01:54:36;5.27;;;2.33;;
20962;SDS011;10640;50.140;8.138;2022-07-05T01:57:04;3.17;;;1.83;;
20962;SDS011;10640;50.140;8.138;2022-07-05T01:59:34;2.17;;;2.03;;
20962;SDS011;10640;50.140;8.138;2022-07-05T02:02:04;2.20;;;2.00;;
20962;SDS011;10640;50.140;8.138;2022-07-05T02:04:32;2.90;;;2.60;;
20962;SDS011;10640;50.140;8.138;2022-07-05T02:07:03;5.37;;;2.20;;
20962;SDS011;10640;50.140;8.138;2022-07-05T02:09:30;3.57;;;2.30;;
20962;SDS011;10640;50.140;8.138;2022-07-05T02:11:57;4.07;;;2.13;;
20962;SDS011;10640;50.140;8.138;2022-07-05T02:14:24;2.87;;;2.17;;
20962;SDS011;10640;50.140;8.138;2022-07-05T02:16:53;3.17;;;2.23;;
20962;SDS011;10640;50.140;8.138;2022-07-05T02:19:20;3.40;;;2.17;;
20962;SDS011;10640;50.140;8.138;2022-07-05T02:21:48;3.17;;;2.40;;
20962;SDS011;10640;50.140;8.138;2022-07-05T02:24:15;2.47;;;2.27;;
20962;SDS011;10640;50.140;8.138;2022-07-05T02:26:43;4.43;;;2.53;;
20962;SDS011;10640;50.140;8.138;2022-07-05T02:29:11;2.53;;;2.30;;
20962;SDS011;10640;50.140;8.138;2022-07-05T02:31:38;2.40;;;2.20;;
20962;SDS011;10640;50.140;8.138;2022-07-05T02:34:07;2.67;;;2.30;;
20962;SDS011;10640;50.140;8.138;2022-07-05T02:36:34;3.43;;;2.40;;
20962;SDS011;10640;50.140;8.138;2022-07-05T02:39:02;5.50;;;2.53;;
20962;SDS011;10640;50.140;8.138;2022-07-05T02:41:29;2.80;;;2.50;;
20962;SDS011;10640;50.140;8.138;2022-07-05T02:43:56;3.13;;;2.20;;
20962;SDS011;10640;50.140;8.138;2022-07-05T02:46:24;2.40;;;2.20;;
20962;SDS011;10640;50.140;8.138;2022-07-05T02:48:51;3.63;;;2.30;;
20962;SDS011;10640;50.140;8.138;2022-07-05T02:51:20;2.83;;;2.40;;
20962;SDS011;10640;50.140;8.138;2022-07-05T03:58:01;3.30;;;2.30;;
20962;SDS011;10640;50.140;8.138;2022-07-05T04:00:28;3.03;;;2.27;;
20962;SDS011;10640;50.140;8.138;2022-07-05T04:02:55;2.97;;;2.50;;
20962;SDS011;10640;50.140;8.138;2022-07-05T04:05:36;3.50;;;2.30;;
20962;SDS011;10640;50.140;8.138;2022-07-05T04:08:04;3.37;;;2.97;;
20962;SDS011;10640;50.140;8.138;2022-07-05T04:10:33;4.33;;;2.83;;
20962;SDS011;10640;50.140;8.138;2022-07-05T04:13:02;5.73;;;2.60;;
20962;SDS011;10640;50.140;8.138;2022-07-05T04:15:29;3.40;;;2.87;;
20962;SDS011;10640;50.140;8.138;2022-07-05T04:17:57;5.40;;;2.70;;
20962;SDS011;10640;50.140;8.138;2022-07-05T04:20:24;3.13;;;2.80;;
20962;SDS011;10640;50.140;8.138;2022-07-05T04:22:51;6.10;;;2.50;;
20962;SDS011;10640;50.140;8.138;2022-07-05T04:25:21;3.53;;;2.90;;
20962;SDS011;10640;50.140;8.138;2022-07-05T04:27:49;3.47;;;2.70;;
20962;SDS011;10640;50.140;8.138;2022-07-05T04:30:19;2.83;;;2.63;;
20962;SDS011;10640;50.140;8.138;2022-07-05T04:32:47;4.80;;;2.73;;
20962;SDS011;10640;50.140;8.138;2022-07-05T04:35:15;4.30;;;2.80;;
20962;SDS011;10640;50.140;8.138;2022-07-05T04:37:43;4.73;;;2.90;;
20962;SDS011;10640;50.140;8.138;2022-07-05T04:40:11;4.00;;;2.73;;
20962;SDS011;10640;50.140;8.138;2022-07-05T04:42:39;4.43;;;2.87;;
20962;SDS011;10640;50.140;8.138;2022-07-05T04:45:23;3.87;;;2.80;;
20962;SDS011;10640;50.140;8.138;2022-07-05T04:47:52;2.90;;;2.60;;
20962;SDS011;10640;50.140;8.138;2022-07-05T04:50:19;3.23;;;2.57;;
20962;SDS011;10640;50.140;8.138;2022-07-05T04:52:46;4.83;;;2.70;;
20962;SDS011;10640;50.140;8.138;2022-07-05T04:55:14;4.97;;;3.20;;
20962;SDS011;10640;50.140;8.138;2022-07-05T04:57:41;4.17;;;3.10;;
20962;SDS011;10640;50.140;8.138;2022-07-05T05:00:12;6.43;;;3.50;;
20962;SDS011;10640;50.140;8.138;2022-07-05T05:02:42;4.50;;;3.53;;
20962;SDS011;10640;50.140;8.138;2022-07-05T05:05:09;7.50;;;3.90;;
20962;SDS011;10640;50.140;8.138;2022-07-05T05:07:37;7.07;;;4.13;;
20962;SDS011;10640;50.140;8.138;2022-07-05T05:10:09;10.27;;;4.63;;
20962;SDS011;10640;50.140;8.138;2022-07-05T05:12:37;7.40;;;3.77;;
20962;SDS011;10640;50.140;8.138;2022-07-05T05:15:05;7.60;;;3.30;;
20962;SDS011;10640;50.140;8.138;2022-07-05T05:17:35;5.87;;;3.40;;
20962;SDS011;10640;50.140;8.138;2022-07-05T05:20:06;7.70;;;4.00;;
20962;SDS011;10640;50.140;8.138;2022-07-05T05:22:38;4.30;;;3.10;;
20962;SDS011;10640;50.140;8.138;2022-07-05T05:25:06;3.00;;;2.73;;
20962;SDS011;10640;50.140;8.138;2022-07-05T05:27:34;6.87;;;2.70;;
20962;SDS011;10640;50.140;8.138;2022-07-05T05:30:11;5.67;;;2.63;;
20962;SDS011;10640;50.140;8.138;2022-07-05T05:32:40;5.70;;;2.50;;
20962;SDS011;10640;50.140;8.138;2022-07-05T05:35:14;9.13;;;2.97;;
20962;SDS011;10640;50.140;8.138;2022-07-05T05:37:50;3.50;;;2.80;;
20962;SDS011;10640;50.140;8.138;2022-07-05T05:40:19;7.77;;;3.00;;
20962;SDS011;10640;50.140;8.138;2022-07-05T05:42:49;7.20;;;2.87;;
20962;SDS011;10640;50.140;8.138;2022-07-05T05:45:17;5.00;;;2.50;;
20962;SDS011;10640;50.140;8.138;2022-07-05T05:47:45;4.00;;;2.50;;
20962;SDS011;10640;50.140;8.138;2022-07-05T05:50:16;4.60;;;2.80;;
20962;SDS011;10640;50.140;8.138;2022-07-05T05:52:45;2.67;;;2.10;;
20962;SDS011;10640;50.140;8.138;2022-07-05T05:55:22;4.57;;;2.23;;
20962;SDS011;10640;50.140;8.138;2022-07-05T05:57:51;4.73;;;2.50;;
20962;SDS011;10640;50.140;8.138;2022-07-05T06:00:19;5.80;;;2.80;;
20962;SDS011;10640;50.140;8.138;2022-07-05T06:02:48;2.60;;;1.90;;
20962;SDS011;10640;50.140;8.138;2022-07-05T06:05:18;6.07;;;2.20;;
20962;SDS011;10640;50.140;8.138;2022-07-05T06:07:45;2.13;;;2.00;;
20962;SDS011;10640;50.140;8.138;2022-07-05T06:10:15;3.93;;;2.10;;
20962;SDS011;10640;50.140;8.138;2022-07-05T06:12:43;4.87;;;1.90;;
20962;SDS011;10640;50.140;8.138;2022-07-05T06:15:11;1.77;;;1.63;;
20962;SDS011;10640;50.140;8.138;2022-07-05T06:17:38;9.27;;;2.30;;
20962;SDS011;10640;50.140;8.138;2022-07-05T06:20:07;2.70;;;1.77;;
20962;SDS011;10640;50.140;8.138;2022-07-05T06:22:38;7.57;;;1.77;;
20962;SDS011;10640;50.140;8.138;2022-07-05T06:25:07;8.37;;;1.30;;
20962;SDS011;10640;50.140;8.138;2022-07-05T06:27:49;4.67;;;1.73;;
20962;SDS011;10640;50.140;8.138;2022-07-05T06:30:22;1.93;;;1.70;;
20962;SDS011;10640;50.140;8.138;2022-07-05T06:32:52;2.87;;;1.40;;
20962;SDS011;10640;50.140;8.138;2022-07-05T06:35:20;2.80;;;1.30;;
20962;SDS011;10640;50.140;8.138;2022-07-05T06:37:50;6.37;;;1.63;;
20962;SDS011;10640;50.140;8.138;2022-07-05T06:40:19;3.10;;;1.50;;
20962;SDS011;10640;50.140;8.138;2022-07-05T06:42:47;3.97;;;1.40;;
20962;SDS011;10640;50.140;8.138;2022-07-05T06:45:16;2.93;;;1.80;;
20962;SDS011;10640;50.140;8.138;2022-07-05T06:47:53;1.77;;;1.40;;
20962;SDS011;10640;50.140;8.138;2022-07-05T06:53:22;3.73;;;1.60;;
20962;SDS011;10640;50.140;8.138;2022-07-05T06:55:51;1.93;;;1.40;;
20962;SDS011;10640;50.140;8.138;2022-07-05T06:58:18;2.07;;;1.27;;
20962;SDS011;10640;50.140;8.138;2022-07-05T07:00:46;4.47;;;1.50;;
20962;SDS011;10640;50.140;8.138;2022-07-05T07:03:15;5.73;;;2.10;;
20962;SDS011;10640;50.140;8.138;2022-07-05T07:05:44;1.07;;;1.07;;
20962;SDS011;10640;50.140;8.138;2022-07-05T07:08:13;6.80;;;1.40;;
20962;SDS011;10640;50.140;8.138;2022-07-05T07:14:13;3.07;;;1.40;;
20962;SDS011;10640;50.140;8.138;2022-07-05T07:16:41;4.57;;;1.10;;
20962;SDS011;10640;50.140;8.138;2022-07-05T07:19:23;2.40;;;1.57;;
20962;SDS011;10640;50.140;8.138;2022-07-05T07:21:50;2.43;;;1.50;;
20962;SDS011;10640;50.140;8.138;2022-07-05T07:24:23;4.20;;;1.40;;
20962;SDS011;10640;50.140;8.138;2022-07-05T07:27:05;7.63;;;1.63;;
20962;SDS011;10640;50.140;8.138;2022-07-05T07:29:37;12.87;;;1.50;;
20962;SDS011;10640;50.140;8.138;2022-07-05T07:32:07;5.93;;;1.50;;
20962;SDS011;10640;50.140;8.138;2022-07-05T07:34:36;5.73;;;1.60;;
20962;SDS011;10640;50.140;8.138;2022-07-05T07:37:07;2.07;;;1.33;;
20962;SDS011;10640;50.140;8.138;2022-07-05T07:39:38;6.10;;;2.00;;
20962;SDS011;10640;50.140;8.138;2022-07-05T07:42:07;3.33;;;1.37;;
20962;SDS011;10640;50.140;8.138;2022-07-05T07:44:36;4.63;;;1.60;;
20962;SDS011;10640;50.140;8.138;2022-07-05T07:47:03;2.43;;;1.50;;
20962;SDS011;10640;50.140;8.138;2022-07-05T07:49:31;1.53;;;1.40;;
20962;SDS011;10640;50.140;8.138;2022-07-05T07:51:58;2.67;;;1.23;;
20962;SDS011;10640;50.140;8.138;2022-07-05T07:54:25;4.10;;;1.33;;
20962;SDS011;10640;50.140;8.138;2022-07-05T07:56:54;3.57;;;1.63;;
20962;SDS011;10640;50.140;8.138;2022-07-05T07:59:21;3.90;;;1.40;;
20962;SDS011;10640;50.140;8.138;2022-07-05T08:01:50;3.90;;;1.97;;
20962;SDS011;10640;50.140;8.138;2022-07-05T08:04:17;2.10;;;1.30;;
20962;SDS011;10640;50.140;8.138;2022-07-05T08:06:45;3.43;;;1.60;;
20962;SDS011;10640;50.140;8.138;2022-07-05T08:09:13;2.37;;;1.50;;
20962;SDS011;10640;50.140;8.138;2022-07-05T08:11:40;3.20;;;1.40;;
20962;SDS011;10640;50.140;8.138;2022-07-05T08:14:08;3.13;;;1.43;;
20962;SDS011;10640;50.140;8.138;2022-07-05T08:16:35;3.40;;;1.47;;
20962;SDS011;10640;50.140;8.138;2022-07-05T08:19:04;3.67;;;1.27;;
20962;SDS011;10640;50.140;8.138;2022-07-05T08:21:51;1.87;;;1.33;;
20962;SDS011;10640;50.140;8.138;2022-07-05T08:24:19;2.77;;;1.40;;
20962;SDS011;10640;50.140;8.138;2022-07-05T08:26:47;2.43;;;1.30;;
20962;SDS011;10640;50.140;8.138;2022-07-05T08:29:14;1.97;;;1.33;;
20962;SDS011;10640;50.140;8.138;2022-07-05T08:31:42;5.30;;;1.50;;
20962;SDS011;10640;50.140;8.138;2022-07-05T08:34:13;6.33;;;1.60;;
20962;SDS011;10640;50.140;8.138;2022-07-05T08:36:43;8.73;;;1.70;;
20962;SDS011;10640;50.140;8.138;2022-07-05T08:39:10;11.30;;;1.80;;
20962;SDS011;10640;50.140;8.138;2022-07-05T08:41:41;4.40;;;1.60;;
20962;SDS011;10640;50.140;8.138;2022-07-05T08:44:09;5.33;;;2.27;;
20962;SDS011;10640;50.140;8.138;2022-07-05T08:46:39;3.93;;;1.80;;
20962;SDS011;10640;50.140;8.138;2022-07-05T08:49:07;2.70;;;1.60;;
20962;SDS011;10640;50.140;8.138;2022-07-05T08:51:37;3.83;;;1.60;;
20962;SDS011;10640;50.140;8.138;2022-07-05T08:54:06;4.03;;;1.40;;
20962;SDS011;10640;50.140;8.138;2022-07-05T08:56:36;2.10;;;1.40;;
20962;SDS011;10640;50.140;8.138;2022-07-05T08:59:04;5.27;;;1.53;;
20962;SDS011;10640;50.140;8.138;2022-07-05T09:01:31;4.40;;;1.70;;
20962;SDS011;10640;50.140;8.138;2022-07-05T09:04:00;3.10;;;1.57;;
20962;SDS011;10640;50.140;8.138;2022-07-05T09:06:31;2.97;;;1.70;;
20962;SDS011;10640;50.140;8.138;2022-07-05T09:09:02;5.07;;;1.40;;
20962;SDS011;10640;50.140;8.138;2022-07-05T09:11:32;5.10;;;1.63;;
20962;SDS011;10640;50.140;8.138;2022-07-05T09:14:03;7.40;;;1.83;;
20962;SDS011;10640;50.140;8.138;2022-07-05T09:16:31;3.80;;;1.63;;
20962;SDS011;10640;50.140;8.138;2022-07-05T09:19:04;3.70;;;1.77;;
20962;SDS011;10640;50.140;8.138;2022-07-05T09:21:32;5.83;;;1.70;;
20962;SDS011;10640;50.140;8.138;2022-07-05T09:24:00;2.30;;;1.50;;
20962;SDS011;10640;50.140;8.138;2022-07-05T09:26:33;3.30;;;1.40;;
20962;SDS011;10640;50.140;8.138;2022-07-05T09:29:02;4.13;;;1.90;;
20962;SDS011;10640;50.140;8.138;2022-07-05T09:31:31;4.17;;;1.53;;
20962;SDS011;10640;50.140;8.138;2022-07-05T09:34:06;2.77;;;1.80;;
20962;SDS011;10640;50.140;8.138;2022-07-05T09:36:46;4.40;;;1.43;;
20962;SDS011;10640;50.140;8.138;2022-07-05T09:39:15;10.30;;;1.90;;
20962;SDS011;10640;50.140;8.138;2022-07-05T09:41:42;4.10;;;1.70;;
20962;SDS011;10640;50.140;8.138;2022-07-05T09:44:09;5.33;;;1.67;;
20962;SDS011;10640;50.140;8.138;2022-07-05T09:46:36;1.40;;;1.20;;
20962;SDS011;10640;50.140;8.138;2022-07-05T09:49:03;2.37;;;1.40;;
20962;SDS011;10640;50.140;8.138;2022-07-05T09:51:34;7.00;;;1.90;;
20962;SDS011;10640;50.140;8.138;2022-07-05T09:54:15;1.93;;;1.00;;
20962;SDS011;10640;50.140;8.138;2022-07-05T09:56:45;6.10;;;1.33;;
20962;SDS011;10640;50.140;8.138;2022-07-05T09:59:14;6.43;;;1.47;;
20962;SDS011;10640;50.140;8.138;2022-07-05T10:01:43;1.47;;;1.37;;
20962;SDS011;10640;50.140;8.138;2022-07-05T10:04:09;4.20;;;1.57;;
20962;SDS011;10640;50.140;8.138;2022-07-05T10:06:36;2.00;;;1.40;;
20962;SDS011;10640;50.140;8.138;2022-07-05T10:09:04;6.33;;;2.20;;
20962;SDS011;10640;50.140;8.138;2022-07-05T10:11:33;2.73;;;1.87;;
20962;SDS011;10640;50.140;8.138;2022-07-05T10:14:03;1.87;;;1.63;;
20962;SDS011;10640;50.140;8.138;2022-07-05T10:16:36;6.10;;;1.43;;
20962;SDS011;10640;50.140;8.138;2022-07-05T10:19:03;2.53;;;1.60;;
20962;SDS011;10640;50.140;8.138;2022-07-05T10:21:35;2.27;;;1.40;;
20962;SDS011;10640;50.140;8.138;2022-07-05T10:24:02;4.03;;;2.10;;
20962;SDS011;10640;50.140;8.138;2022-07-05T10:26:30;1.07;;;1.07;;
20962;SDS011;10640;50.140;8.138;2022-07-05T10:29:00;1.77;;;1.40;;
20962;SDS011;10640;50.140;8.138;2022-07-05T10:31:28;6.23;;;1.90;;
20962;SDS011;10640;50.140;8.138;2022-07-05T10:33:55;2.87;;;1.40;;
20962;SDS011;10640;50.140;8.138;2022-07-05T10:36:25;5.20;;;2.70;;
20962;SDS011;10640;50.140;8.138;2022-07-05T10:38:53;3.90;;;1.97;;
20962;SDS011;10640;50.140;8.138;2022-07-05T10:41:29;2.40;;;1.20;;
20962;SDS011;10640;50.140;8.138;2022-07-05T10:44:02;1.80;;;1.17;;
20962;SDS011;10640;50.140;8.138;2022-07-05T10:46:33;3.05;;;1.50;;
20962;SDS011;10640;50.140;8.138;2022-07-05T10:49:09;2.00;;;1.20;;
20962;SDS011;10640;50.140;8.138;2022-07-05T10:51:37;1.50;;;1.40;;
20962;SDS011;10640;50.140;8.138;2022-07-05T10:54:04;3.13;;;1.30;;
20962;SDS011;10640;50.140;8.138;2022-07-05T10:56:31;3.35;;;1.40;;
20962;SDS011;10640;50.140;8.138;2022-07-05T10:59:06;5.75;;;1.30;;
20962;SDS011;10640;50.140;8.138;2022-07-05T11:01:37;3.63;;;1.63;;
20962;SDS011;10640;50.140;8.138;2022-07-05T11:06:55;1.10;;;1.10;;
20962;SDS011;10640;50.140;8.138;2022-07-05T11:09:22;4.25;;;1.50;;
20962;SDS011;10640;50.140;8.138;2022-07-05T11:12:03;4.10;;;1.25;;
20962;SDS011;10640;50.140;8.138;2022-07-05T11:14:37;1.50;;;1.38;;
20962;SDS011;10640;50.140;8.138;2022-07-05T11:17:15;6.07;;;1.95;;
20962;SDS011;10640;50.140;8.138;2022-07-05T11:20:02;1.40;;;1.30;;
20962;SDS011;10640;50.140;8.138;2022-07-05T11:22:32;4.37;;;1.67;;
20962;SDS011;10640;50.140;8.138;2022-07-05T11:25:00;1.27;;;1.27;;
20962;SDS011;10640;50.140;8.138;2022-07-05T11:27:27;1.27;;;1.17;;
20962;SDS011;10640;50.140;8.138;2022-07-05T11:29:55;3.35;;;1.67;;
20962;SDS011;10640;50.140;8.138;2022-07-05T11:32:26;1.52;;;1.20;;
20962;SDS011;10640;50.140;8.138;2022-07-05T11:35:12;6.68;;;1.50;;
20962;SDS011;10640;50.140;8.138;2022-07-05T11:37:57;1.93;;;1.40;;
20962;SDS011;10640;50.140;8.138;2022-07-05T11:40:27;1.43;;;1.30;;
20962;SDS011;10640;50.140;8.138;2022-07-05T11:42:56;3.23;;;1.60;;
20962;SDS011;10640;50.140;8.138;2022-07-05T11:45:25;1.37;;;1.30;;
20962;SDS011;10640;50.140;8.138;2022-07-05T11:47:53;3.92;;;1.58;;
20962;SDS011;10640;50.140;8.138;2022-07-05T11:50:26;1.08;;;1.05;;
20962;SDS011;10640;50.140;8.138;2022-07-05T11:52:55;3.17;;;1.45;;
20962;SDS011;10640;50.140;8.138;2022-07-05T11:55:24;1.85;;;1.30;;
20962;SDS011;10640;50.140;8.138;2022-07-05T11:57:53;1.90;;;1.30;;
20962;SDS011;10640;50.140;8.138;2022-07-05T12:00:32;3.17;;;2.13;;
20962;SDS011;10640;50.140;8.138;2022-07-05T12:03:10;2.63;;;1.42;;
20962;SDS011;10640;50.140;8.138;2022-07-05T12:05:38;4.25;;;1.50;;
20962;SDS011;10640;50.140;8.138;2022-07-05T12:08:05;4.70;;;1.70;;
20962;SDS011;10640;50.140;8.138;2022-07-05T12:10:32;4.78;;;1.60;;
20962;SDS011;10640;50.140;8.138;2022-07-05T12:13:17;2.20;;;1.40;;
20962;SDS011;10640;50.140;8.138;2022-07-05T12:15:45;4.85;;;1.80;;
20962;SDS011;10640;50.140;8.138;2022-07-05T12:18:12;4.67;;;1.40;;
20962;SDS011;10640;50.140;8.138;2022-07-05T12:20:42;3.50;;;1.60;;
20962;SDS011;10640;50.140;8.138;2022-07-05T12:23:09;3.43;;;1.50;;
20962;SDS011;10640;50.140;8.138;2022-07-05T12:25:36;3.07;;;1.50;;
20962;SDS011;10640;50.140;8.138;2022-07-05T12:28:03;10.47;;;6.30;;
20962;SDS011;10640;50.140;8.138;2022-07-05T12:30:36;8.57;;;1.60;;
20962;SDS011;10640;50.140;8.138;2022-07-05T12:33:05;4.50;;;1.50;;
20962;SDS011;10640;50.140;8.138;2022-07-05T12:35:36;1.40;;;1.40;;
20962;SDS011;10640;50.140;8.138;2022-07-05T12:38:05;4.53;;;2.23;;
20962;SDS011;10640;50.140;8.138;2022-07-05T12:40:38;2.13;;;1.50;;
20962;SDS011;10640;50.140;8.138;2022-07-05T12:43:06;2.45;;;1.40;;
20962;SDS011;10640;50.140;8.138;2022-07-05T12:45:35;3.22;;;1.55;;
20962;SDS011;10640;50.140;8.138;2022-07-05T12:48:03;3.28;;;1.60;;
20962;SDS011;10640;50.140;8.138;2022-07-05T12:50:46;3.30;;;1.67;;
20962;SDS011;10640;50.140;8.138;2022-07-05T12:53:14;3.23;;;1.80;;
20962;SDS011;10640;50.140;8.138;2022-07-05T12:56:00;1.73;;;1.63;;
20962;SDS011;10640;50.140;8.138;2022-07-05T12:58:46;5.97;;;1.87;;
20962;SDS011;10640;50.140;8.138;2022-07-05T13:01:20;4.27;;;1.80;;
20962;SDS011;10640;50.140;8.138;2022-07-05T13:03:57;3.27;;;2.37;;
20962;SDS011;10640;50.140;8.138;2022-07-05T13:06:44;5.63;;;1.77;;
20962;SDS011;10640;50.140;8.138;2022-07-05T13:09:14;4.30;;;1.97;;
20962;SDS011;10640;50.140;8.138;2022-07-05T13:12:03;1.80;;;1.70;;
20962;SDS011;10640;50.140;8.138;2022-07-05T13:14:31;3.80;;;1.90;;
20962;SDS011;10640;50.140;8.138;2022-07-05T13:16:59;3.53;;;1.87;;
20962;SDS011;10640;50.140;8.138;2022-07-05T13:19:28;3.80;;;1.83;;
20962;SDS011;10640;50.140;8.138;2022-07-05T13:22:00;4.90;;;1.90;;
20962;SDS011;10640;50.140;8.138;2022-07-05T13:24:27;2.20;;;2.00;;
20962;SDS011;10640;50.140;8.138;2022-07-05T13:26:55;2.30;;;1.90;;
20962;SDS011;10640;50.140;8.138;2022-07-05T13:29:22;7.73;;;2.90;;
20962;SDS011;10640;50.140;8.138;2022-07-05T13:31:49;3.37;;;2.13;;
20962;SDS011;10640;50.140;8.138;2022-07-05T13:34:17;2.20;;;2.00;;
20962;SDS011;10640;50.140;8.138;2022-07-05T13:36:56;12.33;;;2.30;;
20962;SDS011;10640;50.140;8.138;2022-07-05T13:39:24;5.73;;;2.03;;
20962;SDS011;10640;50.140;8.138;2022-07-05T13:41:52;2.73;;;1.50;;
20962;SDS011;10640;50.140;8.138;2022-07-05T13:44:20;3.13;;;1.57;;
20962;SDS011;10640;50.140;8.138;2022-07-05T13:46:48;1.70;;;1.60;;
20962;SDS011;10640;50.140;8.138;2022-07-05T13:49:15;1.93;;;1.67;;
20962;SDS011;10640;50.140;8.138;2022-07-05T13:51:42;4.97;;;1.80;;
20962;SDS011;10640;50.140;8.138;2022-07-05T13:54:13;1.90;;;1.70;;
20962;SDS011;10640;50.140;8.138;2022-07-05T13:56:40;3.87;;;1.80;;
20962;SDS011;10640;50.140;8.138;2022-07-05T13:59:07;3.53;;;1.83;;
20962;SDS011;10640;50.140;8.138;2022-07-05T14:01:34;2.00;;;1.90;;
20962;SDS011;10640;50.140;8.138;2022-07-05T14:04:01;3.83;;;2.00;;
20962;SDS011;10640;50.140;8.138;2022-07-05T14:06:29;2.10;;;1.90;;
20962;SDS011;10640;50.140;8.138;2022-07-05T14:08:57;3.87;;;1.83;;
20962;SDS011;10640;50.140;8.138;2022-07-05T14:11:26;4.57;;;2.23;;
20962;SDS011;10640;50.140;8.138;2022-07-05T14:13:53;2.57;;;1.80;;
20962;SDS011;10640;50.140;8.138;2022-07-05T14:16:20;3.70;;;2.27;;
20962;SDS011;10640;50.140;8.138;2022-07-05T14:18:47;4.23;;;2.13;;
20962;SDS011;10640;50.140;8.138;2022-07-05T14:21:16;2.30;;;2.10;;
20962;SDS011;10640;50.140;8.138;2022-07-05T14:23:42;8.20;;;2.60;;
20962;SDS011;10640;50.140;8.138;2022-07-05T14:26:12;5.70;;;2.17;;
20962;SDS011;10640;50.140;8.138;2022-07-05T14:28:41;3.80;;;2.00;;
20962;SDS011;10640;50.140;8.138;2022-07-05T14:31:08;6.17;;;2.30;;
20962;SDS011;10640;50.140;8.138;2022-07-05T14:33:36;3.83;;;2.50;;
20962;SDS011;10640;50.140;8.138;2022-07-05T14:38:46;2.90;;;2.17;;
20962;SDS011;10640;50.140;8.138;2022-07-05T14:41:13;8.47;;;2.70;;
20962;SDS011;10640;50.140;8.138;2022-07-05T14:43:42;2.83;;;2.07;;
20962;SDS011;10640;50.140;8.138;2022-07-05T14:46:09;2.83;;;2.27;;
20962;SDS011;10640;50.140;8.138;2022-07-05T14:48:43;4.43;;;2.40;;
20962;SDS011;10640;50.140;8.138;2022-07-05T14:51:10;2.40;;;2.20;;
20962;SDS011;10640;50.140;8.138;2022-07-05T14:53:37;2.53;;;2.10;;
20962;SDS011;10640;50.140;8.138;2022-07-05T14:56:07;3.27;;;2.67;;
20962;SDS011;10640;50.140;8.138;2022-07-05T14:58:35;4.90;;;2.70;;
20962;SDS011;10640;50.140;8.138;2022-07-05T15:01:04;2.87;;;2.33;;
20962;SDS011;10640;50.140;8.138;2022-07-05T15:03:31;6.20;;;2.27;;
20962;SDS011;10640;50.140;8.138;2022-07-05T15:05:58;15.53;;;2.40;;
20962;SDS011;10640;50.140;8.138;2022-07-05T15:08:28;2.40;;;2.20;;
20962;SDS011;10640;50.140;8.138;2022-07-05T15:10:55;6.23;;;2.23;;
20962;SDS011;10640;50.140;8.138;2022-07-05T15:13:22;5.93;;;2.70;;
20962;SDS011;10640;50.140;8.138;2022-07-05T15:15:50;2.57;;;2.40;;
20962;SDS011;10640;50.140;8.138;2022-07-05T15:18:18;7.57;;;2.67;;
20962;SDS011;10640;50.140;8.138;2022-07-05T15:20:45;8.63;;;2.37;;
20962;SDS011;10640;50.140;8.138;2022-07-05T15:23:12;6.33;;;2.57;;
20962;SDS011;10640;50.140;8.138;2022-07-05T15:25:39;7.20;;;2.30;;
20962;SDS011;10640;50.140;8.138;2022-07-05T15:28:06;6.03;;;2.50;;
20962;SDS011;10640;50.140;8.138;2022-07-05T15:30:35;4.37;;;2.37;;
20962;SDS011;10640;50.140;8.138;2022-07-05T15:33:03;2.63;;;2.30;;
20962;SDS011;10640;50.140;8.138;2022-07-05T15:35:35;2.90;;;2.60;;
20962;SDS011;10640;50.140;8.138;2022-07-05T15:38:02;5.47;;;2.40;;
20962;SDS011;10640;50.140;8.138;2022-07-05T15:40:29;6.47;;;2.20;;
20962;SDS011;10640;50.140;8.138;2022-07-05T15:42:56;3.27;;;2.30;;
20962;SDS011;10640;50.140;8.138;2022-07-05T15:45:23;4.43;;;2.53;;
20962;SDS011;10640;50.140;8.138;2022-07-05T15:47:50;7.53;;;2.20;;
20962;SDS011;10640;50.140;8.138;2022-07-05T15:50:17;6.50;;;2.17;;
20962;SDS011;10640;50.140;8.138;2022-07-05T15:52:46;7.27;;;2.50;;
20962;SDS011;10640;50.140;8.138;2022-07-05T15:55:13;2.10;;;2.00;;
20962;SDS011;10640;50.140;8.138;2022-07-05T15:57:48;2.70;;;2.13;;
20962;SDS011;10640;50.140;8.138;2022-07-05T16:00:15;2.13;;;2.03;;
20962;SDS011;10640;50.140;8.138;2022-07-05T16:02:43;4.03;;;2.10;;
20962;SDS011;10640;50.140;8.138;2022-07-05T16:05:10;2.40;;;2.03;;
20962;SDS011;10640;50.140;8.138;2022-07-05T16:07:37;5.27;;;2.17;;
20962;SDS011;10640;50.140;8.138;2022-07-05T16:10:06;2.20;;;2.00;;
20962;SDS011;10640;50.140;8.138;2022-07-05T16:12:34;6.83;;;2.10;;
20962;SDS011;10640;50.140;8.138;2022-07-05T16:15:03;2.27;;;2.00;;
20962;SDS011;10640;50.140;8.138;2022-07-05T16:17:34;2.57;;;2.03;;